sensor_id;sensor_type;location;lat;lon;timestamp;temperature;humidity
73547;SHT30;61807;48.384;-4.386;2022-10-31T00:02:00;15.94;82.70
73547;SHT30;61807;48.384;-4.386;2022-10-31T00:04:25;15.95;82.80
73547;SHT30;61807;48.384;-4.386;2022-10-31T00:06:50;15.94;82.80
73547;SHT30;61807;48.384;-4.386;2022-10-31T00:09:16;15.95;82.75
73547;SHT30;61807;48.384;-4.386;2022-10-31T00:11:41;16.00;82.69
73547;SHT30;61807;48.384;-4.386;2022-10-31T00:14:06;16.00;82.65
73547;SHT30;61807;48.384;-4.386;2022-10-31T00:16:32;15.98;82.71
73547;SHT30;61807;48.384;-4.386;2022-10-31T00:18:59;15.98;82.70
73547;SHT30;61807;48.384;-4.386;2022-10-31T00:21:26;16.00;82.71
73547;SHT30;61807;48.384;-4.386;2022-10-31T00:23:52;16.00;82.66
73547;SHT30;61807;48.384;-4.386;2022-10-31T00:26:18;15.97;82.63
73547;SHT30;61807;48.384;-4.386;2022-10-31T00:28:43;15.98;82.59
73547;SHT30;61807;48.384;-4.386;2022-10-31T00:31:10;15.97;82.53
73547;SHT30;61807;48.384;-4.386;2022-10-31T00:33:37;15.95;82.49
73547;SHT30;61807;48.384;-4.386;2022-10-31T00:36:04;15.97;82.42
73547;SHT30;61807;48.384;-4.386;2022-10-31T00:38:30;15.95;82.53
73547;SHT30;61807;48.384;-4.386;2022-10-31T00:40:56;15.93;82.61
73547;SHT30;61807;48.384;-4.386;2022-10-31T00:43:21;15.91;82.63
73547;SHT30;61807;48.384;-4.386;2022-10-31T00:45:47;15.90;82.68
73547;SHT30;61807;48.384;-4.386;2022-10-31T00:48:12;15.91;82.73
73547;SHT30;61807;48.384;-4.386;2022-10-31T00:50:38;15.94;82.69
73547;SHT30;61807;48.384;-4.386;2022-10-31T00:53:04;15.93;82.68
73547;SHT30;61807;48.384;-4.386;2022-10-31T00:55:29;15.95;82.63
73547;SHT30;61807;48.384;-4.386;2022-10-31T00:57:55;15.90;82.65
73547;SHT30;61807;48.384;-4.386;2022-10-31T01:00:20;15.93;82.64
73547;SHT30;61807;48.384;-4.386;2022-10-31T01:02:46;15.87;82.72
73547;SHT30;61807;48.384;-4.386;2022-10-31T01:05:12;15.84;82.78
73547;SHT30;61807;48.384;-4.386;2022-10-31T01:07:38;15.83;82.74
73547;SHT30;61807;48.384;-4.386;2022-10-31T01:10:05;15.83;82.74
73547;SHT30;61807;48.384;-4.386;2022-10-31T01:12:39;15.78;82.84
73547;SHT30;61807;48.384;-4.386;2022-10-31T01:15:05;15.81;82.81
73547;SHT30;61807;48.384;-4.386;2022-10-31T01:17:31;15.81;82.79
73547;SHT30;61807;48.384;-4.386;2022-10-31T01:19:56;15.81;82.79
73547;SHT30;61807;48.384;-4.386;2022-10-31T01:22:22;15.80;82.73
73547;SHT30;61807;48.384;-4.386;2022-10-31T01:24:47;15.78;82.85
73547;SHT30;61807;48.384;-4.386;2022-10-31T01:27:12;15.74;82.84
73547;SHT30;61807;48.384;-4.386;2022-10-31T01:29:38;15.75;82.88
73547;SHT30;61807;48.384;-4.386;2022-10-31T01:32:03;15.71;82.84
73547;SHT30;61807;48.384;-4.386;2022-10-31T01:34:29;15.67;82.99
73547;SHT30;61807;48.384;-4.386;2022-10-31T01:36:54;15.65;82.98
73547;SHT30;61807;48.384;-4.386;2022-10-31T01:39:19;15.63;83.14
73547;SHT30;61807;48.384;-4.386;2022-10-31T01:41:49;15.61;83.08
73547;SHT30;61807;48.384;-4.386;2022-10-31T01:46:57;15.63;83.11
73547;SHT30;61807;48.384;-4.386;2022-10-31T01:49:46;15.65;83.17
73547;SHT30;61807;48.384;-4.386;2022-10-31T01:52:35;15.61;83.28
73547;SHT30;61807;48.384;-4.386;2022-10-31T01:55:33;15.60;83.19
73547;SHT30;61807;48.384;-4.386;2022-10-31T01:57:53;15.60;83.25
73547;SHT30;61807;48.384;-4.386;2022-10-31T02:00:21;15.61;83.21
73547;SHT30;61807;48.384;-4.386;2022-10-31T02:02:48;15.64;83.17
73547;SHT30;61807;48.384;-4.386;2022-10-31T02:05:20;15.63;83.12
73547;SHT30;61807;48.384;-4.386;2022-10-31T02:08:26;15.58;83.18
73547;SHT30;61807;48.384;-4.386;2022-10-31T02:10:52;15.60;83.10
73547;SHT30;61807;48.384;-4.386;2022-10-31T02:13:18;15.58;83.03
73547;SHT30;61807;48.384;-4.386;2022-10-31T02:15:47;15.60;83.05
73547;SHT30;61807;48.384;-4.386;2022-10-31T02:18:15;15.60;83.05
73547;SHT30;61807;48.384;-4.386;2022-10-31T02:23:42;15.54;82.97
73547;SHT30;61807;48.384;-4.386;2022-10-31T02:32:25;15.42;83.11
73547;SHT30;61807;48.384;-4.386;2022-10-31T02:35:07;15.37;83.16
73547;SHT30;61807;48.384;-4.386;2022-10-31T02:37:52;15.39;83.15
73547;SHT30;61807;48.384;-4.386;2022-10-31T02:43:06;15.35;83.25
73547;SHT30;61807;48.384;-4.386;2022-10-31T02:45:50;15.32;83.21
73547;SHT30;61807;48.384;-4.386;2022-10-31T02:48:23;15.36;83.13
73547;SHT30;61807;48.384;-4.386;2022-10-31T02:50:55;15.35;83.08
73547;SHT30;61807;48.384;-4.386;2022-10-31T02:53:22;15.30;83.14
73547;SHT30;61807;48.384;-4.386;2022-10-31T02:55:54;15.32;83.27
73547;SHT30;61807;48.384;-4.386;2022-10-31T02:58:22;15.32;83.36
73547;SHT30;61807;48.384;-4.386;2022-10-31T03:06:23;15.35;83.23
73547;SHT30;61807;48.384;-4.386;2022-10-31T03:09:03;15.33;83.23
73547;SHT30;61807;48.384;-4.386;2022-10-31T03:12:07;15.30;83.27
73547;SHT30;61807;48.384;-4.386;2022-10-31T03:17:18;15.26;83.17
73547;SHT30;61807;48.384;-4.386;2022-10-31T03:19:49;15.22;83.17
73547;SHT30;61807;48.384;-4.386;2022-10-31T03:22:30;15.20;83.24
73547;SHT30;61807;48.384;-4.386;2022-10-31T03:24:57;15.16;83.24
73547;SHT30;61807;48.384;-4.386;2022-10-31T03:27:27;15.16;83.21
73547;SHT30;61807;48.384;-4.386;2022-10-31T03:29:56;15.15;83.24
73547;SHT30;61807;48.384;-4.386;2022-10-31T03:32:28;15.10;83.32
73547;SHT30;61807;48.384;-4.386;2022-10-31T03:34:57;15.09;83.40
73547;SHT30;61807;48.384;-4.386;2022-10-31T03:37:26;15.09;83.47
73547;SHT30;61807;48.384;-4.386;2022-10-31T03:39:53;15.07;83.52
73547;SHT30;61807;48.384;-4.386;2022-10-31T03:42:25;15.07;83.52
73547;SHT30;61807;48.384;-4.386;2022-10-31T03:45:10;15.09;83.56
73547;SHT30;61807;48.384;-4.386;2022-10-31T03:47:37;15.09;83.56
73547;SHT30;61807;48.384;-4.386;2022-10-31T03:50:05;15.10;83.63
73547;SHT30;61807;48.384;-4.386;2022-10-31T03:53:14;15.09;83.63
73547;SHT30;61807;48.384;-4.386;2022-10-31T03:55:26;15.09;83.70
73547;SHT30;61807;48.384;-4.386;2022-10-31T03:58:03;15.07;83.68
73547;SHT30;61807;48.384;-4.386;2022-10-31T04:00:32;15.12;83.68
73547;SHT30;61807;48.384;-4.386;2022-10-31T04:03:09;15.10;83.74
73547;SHT30;61807;48.384;-4.386;2022-10-31T04:05:36;15.09;83.71
73547;SHT30;61807;48.384;-4.386;2022-10-31T04:08:07;15.10;83.69
73547;SHT30;61807;48.384;-4.386;2022-10-31T04:10:36;15.12;83.69
73547;SHT30;61807;48.384;-4.386;2022-10-31T04:13:14;15.12;83.65
73547;SHT30;61807;48.384;-4.386;2022-10-31T04:15:42;15.13;83.60
73547;SHT30;61807;48.384;-4.386;2022-10-31T04:18:08;15.12;83.56
73547;SHT30;61807;48.384;-4.386;2022-10-31T04:20:36;15.10;83.51
73547;SHT30;61807;48.384;-4.386;2022-10-31T04:23:02;15.12;83.52
73547;SHT30;61807;48.384;-4.386;2022-10-31T04:25:28;15.09;83.54
73547;SHT30;61807;48.384;-4.386;2022-10-31T04:27:54;15.09;83.52
73547;SHT30;61807;48.384;-4.386;2022-10-31T04:30:19;15.10;83.48
73547;SHT30;61807;48.384;-4.386;2022-10-31T04:32:44;15.09;83.43
73547;SHT30;61807;48.384;-4.386;2022-10-31T04:35:10;15.07;83.29
73547;SHT30;61807;48.384;-4.386;2022-10-31T04:37:35;15.07;83.32
73547;SHT30;61807;48.384;-4.386;2022-10-31T04:40:00;15.10;83.32
73547;SHT30;61807;48.384;-4.386;2022-10-31T04:42:29;15.09;83.26
73547;SHT30;61807;48.384;-4.386;2022-10-31T04:44:55;15.07;83.21
73547;SHT30;61807;48.384;-4.386;2022-10-31T04:47:20;15.06;83.18
73547;SHT30;61807;48.384;-4.386;2022-10-31T04:49:46;15.06;83.10
73547;SHT30;61807;48.384;-4.386;2022-10-31T04:52:11;15.05;83.11
73547;SHT30;61807;48.384;-4.386;2022-10-31T04:54:36;15.05;83.11
73547;SHT30;61807;48.384;-4.386;2022-10-31T04:57:02;15.05;83.11
73547;SHT30;61807;48.384;-4.386;2022-10-31T04:59:27;15.06;83.07
73547;SHT30;61807;48.384;-4.386;2022-10-31T05:01:53;15.03;83.00
73547;SHT30;61807;48.384;-4.386;2022-10-31T05:04:18;15.05;82.96
73547;SHT30;61807;48.384;-4.386;2022-10-31T05:06:43;15.03;82.89
73547;SHT30;61807;48.384;-4.386;2022-10-31T05:09:09;15.06;82.88
73547;SHT30;61807;48.384;-4.386;2022-10-31T05:11:34;15.05;82.82
73547;SHT30;61807;48.384;-4.386;2022-10-31T05:14:00;15.03;82.77
73547;SHT30;61807;48.384;-4.386;2022-10-31T05:16:25;15.05;82.82
73547;SHT30;61807;48.384;-4.386;2022-10-31T05:18:50;15.00;82.81
73547;SHT30;61807;48.384;-4.386;2022-10-31T05:21:16;15.02;82.85
73547;SHT30;61807;48.384;-4.386;2022-10-31T05:23:41;15.05;82.85
73547;SHT30;61807;48.384;-4.386;2022-10-31T05:26:06;15.03;82.83
73547;SHT30;61807;48.384;-4.386;2022-10-31T05:28:32;15.03;82.83
73547;SHT30;61807;48.384;-4.386;2022-10-31T05:30:57;14.99;82.91
73547;SHT30;61807;48.384;-4.386;2022-10-31T05:33:22;14.99;82.91
73547;SHT30;61807;48.384;-4.386;2022-10-31T05:35:48;14.98;82.98
73547;SHT30;61807;48.384;-4.386;2022-10-31T05:38:13;14.98;83.02
73547;SHT30;61807;48.384;-4.386;2022-10-31T05:40:39;14.95;83.01
73547;SHT30;61807;48.384;-4.386;2022-10-31T05:43:04;14.93;83.04
73547;SHT30;61807;48.384;-4.386;2022-10-31T05:45:29;14.92;83.12
73547;SHT30;61807;48.384;-4.386;2022-10-31T05:47:59;14.93;83.14
73547;SHT30;61807;48.384;-4.386;2022-10-31T05:50:27;14.89;83.12
73547;SHT30;61807;48.384;-4.386;2022-10-31T05:52:58;14.88;83.15
73547;SHT30;61807;48.384;-4.386;2022-10-31T05:55:24;14.86;83.17
73547;SHT30;61807;48.384;-4.386;2022-10-31T05:57:51;14.88;83.17
73547;SHT30;61807;48.384;-4.386;2022-10-31T06:00:17;14.86;83.16
73547;SHT30;61807;48.384;-4.386;2022-10-31T06:02:42;14.86;83.16
73547;SHT30;61807;48.384;-4.386;2022-10-31T06:05:08;14.84;83.11
73547;SHT30;61807;48.384;-4.386;2022-10-31T06:07:34;14.81;83.14
73547;SHT30;61807;48.384;-4.386;2022-10-31T06:10:01;14.77;83.18
73547;SHT30;61807;48.384;-4.386;2022-10-31T06:12:26;14.77;83.18
73547;SHT30;61807;48.384;-4.386;2022-10-31T06:14:52;14.78;83.19
73547;SHT30;61807;48.384;-4.386;2022-10-31T06:17:17;14.77;83.15
73547;SHT30;61807;48.384;-4.386;2022-10-31T06:19:42;14.78;83.15
73547;SHT30;61807;48.384;-4.386;2022-10-31T06:22:08;14.77;83.11
73547;SHT30;61807;48.384;-4.386;2022-10-31T06:24:33;14.78;83.07
73547;SHT30;61807;48.384;-4.386;2022-10-31T06:26:59;14.75;83.10
73547;SHT30;61807;48.384;-4.386;2022-10-31T06:29:24;14.72;83.16
73547;SHT30;61807;48.384;-4.386;2022-10-31T06:31:52;14.71;83.16
73547;SHT30;61807;48.384;-4.386;2022-10-31T06:34:18;14.71;83.22
73547;SHT30;61807;48.384;-4.386;2022-10-31T06:36:45;14.68;83.23
73547;SHT30;61807;48.384;-4.386;2022-10-31T06:39:11;14.68;83.26
73547;SHT30;61807;48.384;-4.386;2022-10-31T06:41:36;14.67;83.23
73547;SHT30;61807;48.384;-4.386;2022-10-31T06:44:02;14.64;83.31
73547;SHT30;61807;48.384;-4.386;2022-10-31T06:46:27;14.64;83.28
73547;SHT30;61807;48.384;-4.386;2022-10-31T06:48:53;14.63;83.34
73547;SHT30;61807;48.384;-4.386;2022-10-31T06:51:18;14.64;83.39
73547;SHT30;61807;48.384;-4.386;2022-10-31T06:53:44;14.61;83.44
73547;SHT30;61807;48.384;-4.386;2022-10-31T06:56:09;14.60;83.45
73547;SHT30;61807;48.384;-4.386;2022-10-31T06:58:34;14.58;83.49
73547;SHT30;61807;48.384;-4.386;2022-10-31T07:01:00;14.57;83.55
73547;SHT30;61807;48.384;-4.386;2022-10-31T07:03:26;14.52;83.58
73547;SHT30;61807;48.384;-4.386;2022-10-31T07:05:51;14.51;83.59
73547;SHT30;61807;48.384;-4.386;2022-10-31T07:08:17;14.48;83.59
73547;SHT30;61807;48.384;-4.386;2022-10-31T07:10:42;14.49;83.60
73547;SHT30;61807;48.384;-4.386;2022-10-31T07:13:11;14.51;83.56
73547;SHT30;61807;48.384;-4.386;2022-10-31T07:15:38;14.47;83.58
73547;SHT30;61807;48.384;-4.386;2022-10-31T07:18:06;14.48;83.63
73547;SHT30;61807;48.384;-4.386;2022-10-31T07:20:32;14.47;83.69
73547;SHT30;61807;48.384;-4.386;2022-10-31T07:22:58;14.48;83.64
73547;SHT30;61807;48.384;-4.386;2022-10-31T07:25:24;14.51;83.64
73547;SHT30;61807;48.384;-4.386;2022-10-31T07:27:50;14.55;83.61
73547;SHT30;61807;48.384;-4.386;2022-10-31T07:30:16;14.55;83.54
73547;SHT30;61807;48.384;-4.386;2022-10-31T07:32:46;14.58;83.66
73547;SHT30;61807;48.384;-4.386;2022-10-31T07:35:18;14.60;83.67
73547;SHT30;61807;48.384;-4.386;2022-10-31T07:37:43;14.63;83.61
73547;SHT30;61807;48.384;-4.386;2022-10-31T07:40:10;14.67;83.61
73547;SHT30;61807;48.384;-4.386;2022-10-31T07:45:02;14.79;83.45
73547;SHT30;61807;48.384;-4.386;2022-10-31T07:47:27;14.85;83.39
73547;SHT30;61807;48.384;-4.386;2022-10-31T07:49:53;14.88;83.33
73547;SHT30;61807;48.384;-4.386;2022-10-31T07:52:18;14.95;83.23
73547;SHT30;61807;48.384;-4.386;2022-10-31T07:54:44;15.00;83.17
73547;SHT30;61807;48.384;-4.386;2022-10-31T07:57:09;15.06;83.12
73547;SHT30;61807;48.384;-4.386;2022-10-31T07:59:34;15.15;83.02
73547;SHT30;61807;48.384;-4.386;2022-10-31T08:02:00;15.22;82.99
73547;SHT30;61807;48.384;-4.386;2022-10-31T08:04:25;15.29;82.92
73547;SHT30;61807;48.384;-4.386;2022-10-31T08:06:50;15.35;82.74
73547;SHT30;61807;48.384;-4.386;2022-10-31T08:09:16;15.39;82.58
73547;SHT30;61807;48.384;-4.386;2022-10-31T08:11:41;15.46;82.59
73547;SHT30;61807;48.384;-4.386;2022-10-31T08:14:06;15.53;82.48
73547;SHT30;61807;48.384;-4.386;2022-10-31T08:16:32;15.58;82.38
73547;SHT30;61807;48.384;-4.386;2022-10-31T08:18:57;15.61;82.31
73547;SHT30;61807;48.384;-4.386;2022-10-31T08:21:22;15.68;82.10
73547;SHT30;61807;48.384;-4.386;2022-10-31T08:23:48;15.73;82.16
73547;SHT30;61807;48.384;-4.386;2022-10-31T08:26:13;15.77;82.03
73547;SHT30;61807;48.384;-4.386;2022-10-31T08:28:38;15.83;81.98
73547;SHT30;61807;48.384;-4.386;2022-10-31T08:31:04;15.84;81.83
73547;SHT30;61807;48.384;-4.386;2022-10-31T08:33:31;15.94;81.78
73547;SHT30;61807;48.384;-4.386;2022-10-31T08:35:59;16.00;81.77
73547;SHT30;61807;48.384;-4.386;2022-10-31T08:38:25;16.02;81.50
73547;SHT30;61807;48.384;-4.386;2022-10-31T08:40:50;16.06;81.54
73547;SHT30;61807;48.384;-4.386;2022-10-31T08:43:17;16.06;81.11
73547;SHT30;61807;48.384;-4.386;2022-10-31T08:45:44;16.08;81.30
73547;SHT30;61807;48.384;-4.386;2022-10-31T08:48:12;16.09;81.19
73547;SHT30;61807;48.384;-4.386;2022-10-31T08:50:38;16.14;81.07
73547;SHT30;61807;48.384;-4.386;2022-10-31T08:53:06;16.21;80.74
73547;SHT30;61807;48.384;-4.386;2022-10-31T08:55:35;16.22;80.51
73547;SHT30;61807;48.384;-4.386;2022-10-31T08:58:02;16.25;80.33
73547;SHT30;61807;48.384;-4.386;2022-10-31T09:00:28;16.26;80.34
73547;SHT30;61807;48.384;-4.386;2022-10-31T09:02:58;16.29;79.61
73547;SHT30;61807;48.384;-4.386;2022-10-31T09:05:24;16.30;79.98
73547;SHT30;61807;48.384;-4.386;2022-10-31T09:07:50;16.33;79.96
73547;SHT30;61807;48.384;-4.386;2022-10-31T09:10:15;16.35;79.80
73547;SHT30;61807;48.384;-4.386;2022-10-31T09:12:41;16.36;80.05
73547;SHT30;61807;48.384;-4.386;2022-10-31T09:15:07;16.45;80.07
73547;SHT30;61807;48.384;-4.386;2022-10-31T09:17:33;16.46;80.01
73547;SHT30;61807;48.384;-4.386;2022-10-31T09:19:58;16.53;79.97
73547;SHT30;61807;48.384;-4.386;2022-10-31T09:22:23;16.57;79.45
73547;SHT30;61807;48.384;-4.386;2022-10-31T09:24:49;16.64;79.66
73547;SHT30;61807;48.384;-4.386;2022-10-31T09:27:14;16.70;78.57
73547;SHT30;61807;48.384;-4.386;2022-10-31T09:29:40;16.72;78.72
73547;SHT30;61807;48.384;-4.386;2022-10-31T09:32:05;16.73;78.48
73547;SHT30;61807;48.384;-4.386;2022-10-31T09:34:30;16.77;77.88
73547;SHT30;61807;48.384;-4.386;2022-10-31T09:36:56;16.83;77.89
73547;SHT30;61807;48.384;-4.386;2022-10-31T09:39:21;16.94;77.91
73547;SHT30;61807;48.384;-4.386;2022-10-31T09:45:36;17.15;77.30
73547;SHT30;61807;48.384;-4.386;2022-10-31T09:48:17;17.28;77.19
73547;SHT30;61807;48.384;-4.386;2022-10-31T09:51:13;17.42;76.07
73547;SHT30;61807;48.384;-4.386;2022-10-31T09:53:41;17.41;75.74
73547;SHT30;61807;48.384;-4.386;2022-10-31T09:56:11;17.43;75.79
73547;SHT30;61807;48.384;-4.386;2022-10-31T09:58:42;17.49;75.68
73547;SHT30;61807;48.384;-4.386;2022-10-31T10:03:54;17.63;75.63
73547;SHT30;61807;48.384;-4.386;2022-10-31T10:06:24;17.66;75.14
73547;SHT30;61807;48.384;-4.386;2022-10-31T10:08:50;17.70;75.28
73547;SHT30;61807;48.384;-4.386;2022-10-31T10:12:09;17.65;74.82
73547;SHT30;61807;48.384;-4.386;2022-10-31T10:14:54;17.63;74.71
73547;SHT30;61807;48.384;-4.386;2022-10-31T10:17:38;17.59;74.73
73547;SHT30;61807;48.384;-4.386;2022-10-31T10:25:22;17.53;74.71
73547;SHT30;61807;48.384;-4.386;2022-10-31T10:30:43;17.61;74.47
73547;SHT30;61807;48.384;-4.386;2022-10-31T10:36:02;17.68;74.60
73547;SHT30;61807;48.384;-4.386;2022-10-31T10:41:17;17.80;74.15
73547;SHT30;61807;48.384;-4.386;2022-10-31T10:43:42;17.85;73.90
73547;SHT30;61807;48.384;-4.386;2022-10-31T10:46:30;17.90;73.86
73547;SHT30;61807;48.384;-4.386;2022-10-31T10:49:18;17.97;73.82
73547;SHT30;61807;48.384;-4.386;2022-10-31T10:55:08;18.03;73.12
73547;SHT30;61807;48.384;-4.386;2022-10-31T10:58:01;18.04;73.41
73547;SHT30;61807;48.384;-4.386;2022-10-31T11:00:32;18.06;72.31
73547;SHT30;61807;48.384;-4.386;2022-10-31T11:02:59;18.00;72.69
73547;SHT30;61807;48.384;-4.386;2022-10-31T11:05:38;17.99;72.90
73547;SHT30;61807;48.384;-4.386;2022-10-31T11:08:05;17.96;72.76
73547;SHT30;61807;48.384;-4.386;2022-10-31T11:10:30;18.00;73.18
73547;SHT30;61807;48.384;-4.386;2022-10-31T11:16:08;18.13;72.76
73547;SHT30;61807;48.384;-4.386;2022-10-31T11:18:39;18.09;72.74
73547;SHT30;61807;48.384;-4.386;2022-10-31T11:21:05;18.03;72.94
73547;SHT30;61807;48.384;-4.386;2022-10-31T11:23:31;18.00;73.00
73547;SHT30;61807;48.384;-4.386;2022-10-31T11:26:05;18.09;73.31
73547;SHT30;61807;48.384;-4.386;2022-10-31T11:28:32;18.21;73.12
73547;SHT30;61807;48.384;-4.386;2022-10-31T11:31:05;18.34;73.05
73547;SHT30;61807;48.384;-4.386;2022-10-31T11:34:00;18.44;72.73
73547;SHT30;61807;48.384;-4.386;2022-10-31T11:36:31;18.45;72.37
73547;SHT30;61807;48.384;-4.386;2022-10-31T11:38:59;18.47;72.59
73547;SHT30;61807;48.384;-4.386;2022-10-31T11:41:34;18.48;72.73
73547;SHT30;61807;48.384;-4.386;2022-10-31T11:48:58;18.59;72.84
73547;SHT30;61807;48.384;-4.386;2022-10-31T11:51:30;18.64;72.21
73547;SHT30;61807;48.384;-4.386;2022-10-31T11:54:01;18.59;72.51
73547;SHT30;61807;48.384;-4.386;2022-10-31T11:56:40;18.64;72.75
73547;SHT30;61807;48.384;-4.386;2022-10-31T11:59:17;18.65;72.35
73547;SHT30;61807;48.384;-4.386;2022-10-31T12:01:47;18.65;72.68
73547;SHT30;61807;48.384;-4.386;2022-10-31T12:04:13;18.84;72.73
73547;SHT30;61807;48.384;-4.386;2022-10-31T12:06:41;18.99;72.53
73547;SHT30;61807;48.384;-4.386;2022-10-31T12:09:23;18.98;72.40
73547;SHT30;61807;48.384;-4.386;2022-10-31T12:17:18;18.75;73.20
73547;SHT30;61807;48.384;-4.386;2022-10-31T12:20:26;18.69;73.43
73547;SHT30;61807;48.384;-4.386;2022-10-31T12:39:25;18.18;75.10
73547;SHT30;61807;48.384;-4.386;2022-10-31T12:42:21;18.18;75.36
73547;SHT30;61807;48.384;-4.386;2022-10-31T12:50:35;18.03;75.96
73547;SHT30;61807;48.384;-4.386;2022-10-31T12:58:50;17.96;76.57
73547;SHT30;61807;48.384;-4.386;2022-10-31T13:06:58;18.01;77.00
73547;SHT30;61807;48.384;-4.386;2022-10-31T13:09:45;18.03;77.10
73547;SHT30;61807;48.384;-4.386;2022-10-31T13:12:16;18.04;77.12
73547;SHT30;61807;48.384;-4.386;2022-10-31T13:14:50;18.10;77.12
73547;SHT30;61807;48.384;-4.386;2022-10-31T13:17:35;18.09;77.17
73547;SHT30;61807;48.384;-4.386;2022-10-31T13:20:38;18.14;77.32
73547;SHT30;61807;48.384;-4.386;2022-10-31T13:25:44;18.17;77.36
73547;SHT30;61807;48.384;-4.386;2022-10-31T13:30:49;18.13;77.48
73547;SHT30;61807;48.384;-4.386;2022-10-31T13:33:19;18.14;77.62
73547;SHT30;61807;48.384;-4.386;2022-10-31T13:35:54;18.14;77.78
73547;SHT30;61807;48.384;-4.386;2022-10-31T13:46:44;17.97;78.30
73547;SHT30;61807;48.384;-4.386;2022-10-31T13:54:36;17.90;79.01
73547;SHT30;61807;48.384;-4.386;2022-10-31T13:57:51;17.86;79.21
73547;SHT30;61807;48.384;-4.386;2022-10-31T13:59:54;17.79;79.39
73547;SHT30;61807;48.384;-4.386;2022-10-31T14:02:47;17.76;79.63
73547;SHT30;61807;48.384;-4.386;2022-10-31T14:05:39;17.72;79.90
73547;SHT30;61807;48.384;-4.386;2022-10-31T14:08:06;17.69;80.22
73547;SHT30;61807;48.384;-4.386;2022-10-31T14:10:48;17.65;80.49
73547;SHT30;61807;48.384;-4.386;2022-10-31T14:13:21;17.62;80.97
73547;SHT30;61807;48.384;-4.386;2022-10-31T14:18:46;17.58;81.17
73547;SHT30;61807;48.384;-4.386;2022-10-31T14:23:50;17.61;81.09
73547;SHT30;61807;48.384;-4.386;2022-10-31T14:28:53;17.65;81.07
73547;SHT30;61807;48.384;-4.386;2022-10-31T14:31:38;17.65;81.13
73547;SHT30;61807;48.384;-4.386;2022-10-31T14:39:34;17.53;81.02
73547;SHT30;61807;48.384;-4.386;2022-10-31T14:44:56;17.46;81.26
73547;SHT30;61807;48.384;-4.386;2022-10-31T14:53:04;17.43;81.25
73547;SHT30;61807;48.384;-4.386;2022-10-31T14:55:31;17.41;81.17
73547;SHT30;61807;48.384;-4.386;2022-10-31T14:58:07;17.38;81.18
73547;SHT30;61807;48.384;-4.386;2022-10-31T15:00:34;17.41;81.14
73547;SHT30;61807;48.384;-4.386;2022-10-31T15:03:14;17.39;81.24
73547;SHT30;61807;48.384;-4.386;2022-10-31T15:05:45;17.36;81.30
73547;SHT30;61807;48.384;-4.386;2022-10-31T15:08:25;17.30;81.57
73547;SHT30;61807;48.384;-4.386;2022-10-31T15:10:52;17.24;81.63
73547;SHT30;61807;48.384;-4.386;2022-10-31T15:13:19;17.14;81.69
73547;SHT30;61807;48.384;-4.386;2022-10-31T15:15:45;17.04;81.97
73547;SHT30;61807;48.384;-4.386;2022-10-31T15:18:25;16.88;81.91
73547;SHT30;61807;48.384;-4.386;2022-10-31T15:20:52;16.80;81.97
73547;SHT30;61807;48.384;-4.386;2022-10-31T15:23:28;16.69;82.20
73547;SHT30;61807;48.384;-4.386;2022-10-31T15:25:58;16.59;82.45
73547;SHT30;61807;48.384;-4.386;2022-10-31T15:28:25;16.52;82.62
73547;SHT30;61807;48.384;-4.386;2022-10-31T15:30:55;16.46;82.86
73547;SHT30;61807;48.384;-4.386;2022-10-31T15:33:25;16.43;82.83
73547;SHT30;61807;48.384;-4.386;2022-10-31T15:35:59;16.38;82.90
73547;SHT30;61807;48.384;-4.386;2022-10-31T15:38:25;16.35;82.84
73547;SHT30;61807;48.384;-4.386;2022-10-31T15:43:39;16.29;83.04
73547;SHT30;61807;48.384;-4.386;2022-10-31T15:46:09;16.24;83.17
73547;SHT30;61807;48.384;-4.386;2022-10-31T15:48:35;16.24;83.08
73547;SHT30;61807;48.384;-4.386;2022-10-31T15:51:01;16.22;83.10
73547;SHT30;61807;48.384;-4.386;2022-10-31T15:53:41;16.24;83.10
73547;SHT30;61807;48.384;-4.386;2022-10-31T15:56:19;16.21;83.39
73547;SHT30;61807;48.384;-4.386;2022-10-31T15:58:49;16.21;83.36
73547;SHT30;61807;48.384;-4.386;2022-10-31T16:01:27;16.18;83.36
73547;SHT30;61807;48.384;-4.386;2022-10-31T16:04:02;16.16;83.73
73547;SHT30;61807;48.384;-4.386;2022-10-31T16:06:28;16.12;83.69
73547;SHT30;61807;48.384;-4.386;2022-10-31T16:08:54;16.09;83.65
73547;SHT30;61807;48.384;-4.386;2022-10-31T16:14:00;16.06;83.75
73547;SHT30;61807;48.384;-4.386;2022-10-31T16:16:28;16.06;83.65
73547;SHT30;61807;48.384;-4.386;2022-10-31T16:18:55;16.08;83.74
73547;SHT30;61807;48.384;-4.386;2022-10-31T16:21:31;16.08;83.72
73547;SHT30;61807;48.384;-4.386;2022-10-31T16:24:01;16.08;83.71
73547;SHT30;61807;48.384;-4.386;2022-10-31T16:26:28;16.08;83.76
73547;SHT30;61807;48.384;-4.386;2022-10-31T16:28:56;16.08;83.68
73547;SHT30;61807;48.384;-4.386;2022-10-31T16:31:35;16.08;83.89
73547;SHT30;61807;48.384;-4.386;2022-10-31T16:34:20;16.08;83.72
73547;SHT30;61807;48.384;-4.386;2022-10-31T16:36:46;16.08;83.83
73547;SHT30;61807;48.384;-4.386;2022-10-31T16:39:13;16.11;83.77
73547;SHT30;61807;48.384;-4.386;2022-10-31T16:41:41;16.14;83.79
73547;SHT30;61807;48.384;-4.386;2022-10-31T16:46:40;16.14;83.89
73547;SHT30;61807;48.384;-4.386;2022-10-31T16:49:08;16.16;83.73
73547;SHT30;61807;48.384;-4.386;2022-10-31T16:51:34;16.18;83.65
73547;SHT30;61807;48.384;-4.386;2022-10-31T16:53:59;16.21;83.39
73547;SHT30;61807;48.384;-4.386;2022-10-31T16:56:28;16.21;83.23
73547;SHT30;61807;48.384;-4.386;2022-10-31T16:58:54;16.18;83.11
73547;SHT30;61807;48.384;-4.386;2022-10-31T17:01:20;16.16;82.96
73547;SHT30;61807;48.384;-4.386;2022-10-31T17:03:45;16.14;82.95
73547;SHT30;61807;48.384;-4.386;2022-10-31T17:06:12;16.09;82.85
73547;SHT30;61807;48.384;-4.386;2022-10-31T17:08:37;16.06;82.82
73547;SHT30;61807;48.384;-4.386;2022-10-31T17:11:03;16.04;82.81
73547;SHT30;61807;48.384;-4.386;2022-10-31T17:13:31;16.00;82.72
73547;SHT30;61807;48.384;-4.386;2022-10-31T17:15:59;15.94;82.60
73547;SHT30;61807;48.384;-4.386;2022-10-31T17:18:26;15.85;82.50
73547;SHT30;61807;48.384;-4.386;2022-10-31T17:20:58;15.80;82.42
73547;SHT30;61807;48.384;-4.386;2022-10-31T17:23:25;15.75;82.34
73547;SHT30;61807;48.384;-4.386;2022-10-31T17:25:51;15.67;82.40
73547;SHT30;61807;48.384;-4.386;2022-10-31T17:28:16;15.60;82.49
73547;SHT30;61807;48.384;-4.386;2022-10-31T17:30:42;15.51;82.51
73547;SHT30;61807;48.384;-4.386;2022-10-31T17:33:11;15.40;82.73
73547;SHT30;61807;48.384;-4.386;2022-10-31T17:35:36;15.36;82.69
73547;SHT30;61807;48.384;-4.386;2022-10-31T17:38:02;15.29;82.66
73547;SHT30;61807;48.384;-4.386;2022-10-31T17:40:27;15.25;82.63
73547;SHT30;61807;48.384;-4.386;2022-10-31T17:42:55;15.22;82.60
73547;SHT30;61807;48.384;-4.386;2022-10-31T17:45:22;15.20;82.53
73547;SHT30;61807;48.384;-4.386;2022-10-31T17:47:48;15.15;82.37
73547;SHT30;61807;48.384;-4.386;2022-10-31T17:50:19;15.10;82.07
73547;SHT30;61807;48.384;-4.386;2022-10-31T17:52:45;15.00;81.80
73547;SHT30;61807;48.384;-4.386;2022-10-31T17:55:11;14.95;81.68